Terminal Aerodrome Forecast
Issued by NWS Pittsburgh, PA

Current Version | Previous Version | Text Only | Print | Product List | Glossary Off
Versions: 1 2 3 4 5 6 7 8 9 10 11 12 13 14 15 16 17 18 19 20 21 22 23 24 25 26 27 28 29 30 31 32 33

177
FTUS41 KPBZ 280935 AAA
TAFPIT
TAF AMD
KPIT 280935Z 2810/2912 06005KT P6SM SCT040 OVC150
     FM281100 08007KT 3SM -SHRA OVC015
     FM281400 08007KT 3SM -SHRA BR OVC008
     FM281800 08005KT P6SM VCSH BKN015=

USA.gov is the U.S. government's official web portal to all federal, state and local government web resources and services.